createdAt,value
2022-11-06T00:04:04.812Z,0.10
2022-11-06T00:14:06.306Z,0.00
2022-11-06T00:24:08.968Z,0.00
2022-11-06T00:34:10.432Z,0.10
2022-11-06T00:44:11.794Z,0.10
2022-11-06T00:54:13.322Z,0.10
2022-11-06T01:04:19.424Z,0.00
2022-11-06T01:14:21.999Z,0.10
2022-11-06T01:24:27.634Z,0.10
2022-11-06T01:34:29.217Z,0.10
2022-11-06T01:44:33.584Z,0.10
2022-11-06T01:54:38.027Z,0.10
2022-11-06T02:04:45.338Z,0.10
2022-11-06T02:15:17.838Z,0.10
2022-11-06T02:25:22.040Z,0.10
2022-11-06T02:35:35.076Z,0.10
2022-11-06T02:45:59.266Z,0.10
2022-11-06T02:56:11.632Z,0.10
2022-11-06T03:06:23.806Z,0.10
2022-11-06T03:16:25.007Z,0.10
2022-11-06T03:26:35.791Z,0.10
2022-11-06T03:36:52.079Z,0.10
2022-11-06T03:47:07.125Z,0.10
2022-11-06T03:57:17.943Z,0.10
2022-11-06T04:07:28.022Z,0.10
2022-11-06T04:17:29.607Z,0.10
2022-11-06T04:27:55.816Z,0.10
2022-11-06T04:38:30.253Z,0.10
2022-11-06T04:48:31.846Z,0.10
2022-11-06T04:58:32.996Z,0.10
2022-11-06T05:08:34.140Z,0.10
2022-11-06T05:18:36.089Z,0.10
2022-11-06T05:28:37.272Z,0.10
2022-11-06T05:38:38.617Z,0.10
2022-11-06T05:48:39.944Z,0.10
2022-11-06T05:58:41.250Z,0.10
2022-11-06T06:08:42.437Z,0.10
2022-11-06T06:18:43.677Z,0.10
2022-11-06T06:28:47.932Z,0.10
2022-11-06T06:38:49.135Z,0.10
2022-11-06T06:48:50.515Z,0.10
2022-11-06T06:58:54.930Z,0.10
2022-11-06T07:08:56.401Z,0.00
2022-11-06T07:18:58.296Z,0.00
2022-11-06T07:28:59.569Z,0.00
2022-11-06T07:39:00.898Z,0.00
2022-11-06T07:49:02.513Z,0.00
2022-11-06T07:59:04.494Z,0.10
2022-11-06T08:09:07.641Z,0.00
2022-11-06T08:19:08.989Z,0.10
2022-11-06T08:29:10.253Z,0.00
2022-11-06T08:39:14.648Z,0.00
2022-11-06T08:49:16.079Z,0.00
2022-11-06T08:59:17.321Z,0.00
2022-11-06T09:09:18.777Z,0.00
2022-11-06T09:19:20.305Z,0.00
2022-11-06T09:29:21.502Z,0.00
2022-11-06T09:39:22.640Z,0.00
2022-11-06T09:50:06.247Z,0.00
2022-11-06T10:00:13.581Z,0.00
2022-11-06T10:10:18.440Z,0.00
2022-11-06T10:20:51.102Z,0.00
2022-11-06T10:30:55.305Z,0.00
2022-11-06T10:40:56.904Z,0.00
2022-11-06T10:51:05.030Z,0.00
2022-11-06T11:01:11.657Z,0.00
2022-11-06T11:11:12.887Z,0.00
2022-11-06T11:21:27.167Z,0.00
2022-11-06T11:31:31.325Z,0.00
2022-11-06T11:41:32.574Z,0.00
2022-11-06T11:51:44.218Z,0.10
2022-11-06T12:01:46.268Z,0.00
2022-11-06T12:11:47.863Z,0.00
2022-11-06T12:21:57.789Z,0.00
2022-11-06T12:32:16.685Z,0.10
2022-11-06T12:42:24.896Z,0.00
2022-11-06T12:52:47.751Z,0.00
2022-11-06T13:02:54.876Z,0.00
2022-11-06T13:13:21.279Z,0.10
2022-11-06T13:23:30.469Z,0.00
2022-11-06T13:33:41.589Z,0.00
2022-11-06T13:43:48.191Z,0.10
2022-11-06T13:54:23.381Z,0.00
2022-11-06T14:04:53.903Z,0.00
2022-11-06T14:15:16.950Z,0.00
2022-11-06T14:25:27.365Z,0.10
2022-11-06T14:35:28.770Z,0.10
2022-11-06T14:45:33.778Z,0.10
2022-11-06T14:56:00.662Z,0.10
2022-11-06T15:06:43.508Z,0.10
2022-11-06T15:16:49.503Z,0.10
2022-11-06T15:26:54.628Z,0.10
2022-11-06T15:37:18.999Z,0.10
2022-11-06T15:47:30.701Z,0.10
2022-11-06T15:57:32.417Z,0.10
2022-11-06T16:07:33.775Z,0.10
2022-11-06T16:17:40.836Z,0.10
2022-11-06T16:27:44.384Z,0.10
2022-11-06T16:37:49.735Z,0.10
2022-11-06T16:48:07.353Z,0.20
2022-11-06T16:58:16.654Z,0.10
2022-11-06T17:08:20.321Z,0.20
2022-11-06T17:18:26.843Z,0.20
2022-11-06T17:28:32.654Z,0.20
2022-11-06T17:38:35.776Z,0.20
2022-11-06T17:48:37.147Z,0.20
2022-11-06T17:58:38.670Z,0.30
2022-11-06T18:08:40.214Z,0.30
2022-11-06T18:18:44.383Z,0.40
2022-11-06T18:28:45.859Z,0.20
2022-11-06T18:38:47.120Z,0.40
2022-11-06T18:48:52.179Z,0.40
2022-11-06T18:58:54.448Z,0.20
2022-11-06T19:08:56.084Z,0.30
2022-11-06T19:29:06.966Z,0.40
2022-11-06T19:39:08.760Z,0.30
2022-11-06T19:49:11.891Z,0.20
2022-11-06T19:59:13.714Z,0.30
2022-11-06T20:09:15.258Z,0.80
2022-11-06T20:19:18.015Z,0.50
2022-11-06T20:29:19.446Z,0.50
2022-11-06T20:39:21.050Z,0.30
2022-11-06T20:49:22.522Z,0.70
2022-11-06T20:59:24.143Z,0.50
2022-11-06T21:09:25.880Z,1.10
2022-11-06T21:19:28.059Z,1.10
2022-11-06T21:29:29.431Z,1.60
2022-11-06T21:39:35.892Z,0.70
2022-11-06T21:49:38.285Z,0.70
2022-11-06T21:59:41.772Z,0.60
2022-11-06T22:09:43.312Z,0.50
2022-11-06T22:19:44.987Z,0.70
2022-11-06T22:29:47.321Z,1.20
2022-11-06T22:39:48.698Z,1.30
2022-11-06T22:49:49.983Z,1.00
2022-11-06T22:59:51.304Z,0.60
2022-11-06T23:09:52.847Z,0.70
2022-11-06T23:19:55.334Z,0.60
2022-11-06T23:30:00.127Z,1.10
2022-11-06T23:40:01.704Z,0.40
2022-11-06T23:50:04.639Z,0.40
